Rosedale, Mississippi
Current Conditions -  °F | °C
As of 10:55 PM on Thursday 30 Oct 2014 (Local Time) from KRNV Reporting Station
Scattered Clouds Scattered Clouds  
Wind Chill: 57°   Ceiling: Unl
Heat Index: 57°   Visibility: 10mi
Dew Point: 53°   Wind: 3mph
Humidity: 84%   Direction: 210°SSW
Pressure: 30.04"   Gusts: NA
Location:  33.85°N, 91.03°W
Report Text: KRNV 310355Z AUTO 21003KT 10SM SCT080 14/12 A3004 RMK AO2 T01410115
Loading
Personal Weather Stations






























Interactive Weather Map
Tropical Storm Tracking
New forecast layout! Learn more

10-Day Weather Forecast

Advertisements
Track Severe Weather on mobile